createdAt,value
2018-05-06T00:00:11.749Z,98427.75
2018-05-06T00:02:38.884Z,98421.47
2018-05-06T00:05:06.144Z,98427.80
2018-05-06T00:07:33.204Z,98427.31
2018-05-06T00:10:00.273Z,98422.24
2018-05-06T00:12:27.397Z,98426.66
2018-05-06T00:14:54.487Z,98424.11
2018-05-06T00:17:21.564Z,98425.79
2018-05-06T00:19:48.757Z,98422.18
2018-05-06T00:22:15.828Z,98421.01
2018-05-06T00:24:43.030Z,98422.16
2018-05-06T00:27:10.094Z,98432.93
2018-05-06T00:29:37.182Z,98427.66
2018-05-06T00:32:04.375Z,98429.23
2018-05-06T00:34:31.725Z,98430.32
2018-05-06T00:36:58.779Z,98421.78
2018-05-06T00:39:25.837Z,98424.91
2018-05-06T00:41:52.907Z,98424.58
2018-05-06T00:44:20.135Z,98432.23
2018-05-06T00:46:47.239Z,98430.37
2018-05-06T00:49:14.377Z,98435.91
2018-05-06T00:51:41.462Z,98429.48
2018-05-06T00:54:14.397Z,98429.23
2018-05-06T00:56:41.495Z,98427.11
2018-05-06T00:59:08.653Z,98429.05
2018-05-06T01:01:35.720Z,98430.54
2018-05-06T01:04:02.810Z,98436.30
2018-05-06T01:06:29.918Z,98433.31
2018-05-06T01:08:56.990Z,98434.60
2018-05-06T01:11:24.259Z,98436.97
2018-05-06T01:13:51.344Z,98446.01
2018-05-06T01:16:18.434Z,98451.22
2018-05-06T01:18:45.500Z,98449.16
2018-05-06T01:21:12.578Z,98443.16
2018-05-06T01:23:39.700Z,98449.29
2018-05-06T01:26:06.830Z,98453.95
2018-05-06T01:28:33.891Z,98454.33
2018-05-06T01:31:01.084Z,98454.05
2018-05-06T01:33:28.314Z,98451.88
2018-05-06T01:35:55.498Z,98456.11
2018-05-06T01:38:22.574Z,98460.73
2018-05-06T01:40:49.647Z,98459.30
2018-05-06T01:43:16.969Z,98464.95
2018-05-06T01:45:44.045Z,98463.19
2018-05-06T01:48:11.195Z,98465.38
2018-05-06T01:50:38.260Z,98466.30
2018-05-06T01:53:06.105Z,98471.02
2018-05-06T01:55:33.293Z,98466.80
2018-05-06T01:58:00.393Z,98469.31
2018-05-06T02:00:27.571Z,98464.44
2018-05-06T02:02:54.576Z,98461.77
2018-05-06T02:05:21.628Z,98471.69
2018-05-06T02:07:48.783Z,98462.02
2018-05-06T02:10:15.896Z,98464.53
2018-05-06T02:12:42.963Z,98460.96
2018-05-06T02:15:10.016Z,98465.12
2018-05-06T02:17:37.036Z,98463.34
2018-05-06T02:20:04.525Z,98466.37
2018-05-06T02:22:31.785Z,98471.80
2018-05-06T02:24:58.847Z,98473.42
2018-05-06T02:27:26.119Z,98481.42
2018-05-06T02:29:53.204Z,98475.78
2018-05-06T02:32:20.296Z,98471.13
2018-05-06T02:34:47.394Z,98475.64
2018-05-06T02:37:14.470Z,98470.07
2018-05-06T02:39:41.592Z,98473.66
2018-05-06T02:42:08.670Z,98475.70
2018-05-06T02:44:35.740Z,98479.05
2018-05-06T02:47:02.890Z,98477.25
2018-05-06T02:49:30.026Z,98476.95
2018-05-06T02:51:57.366Z,98472.09
2018-05-06T02:54:24.700Z,98469.74
2018-05-06T02:56:52.021Z,98467.02
2018-05-06T02:59:19.378Z,98462.52
2018-05-06T03:01:47.190Z,98472.98
2018-05-06T03:04:14.451Z,98476.68
2018-05-06T03:06:41.575Z,98471.53
2018-05-06T03:09:08.739Z,98468.47
2018-05-06T03:11:35.951Z,98466.59
2018-05-06T03:14:04.050Z,98472.23
2018-05-06T03:16:31.221Z,98465.91
2018-05-06T03:18:58.295Z,98470.71
2018-05-06T03:21:25.314Z,98478.21
2018-05-06T03:23:52.369Z,98482.13
2018-05-06T03:26:19.418Z,98481.54
2018-05-06T03:28:46.585Z,98478.59
2018-05-06T03:31:13.640Z,98485.05
2018-05-06T03:33:40.759Z,98482.05
2018-05-06T03:36:07.792Z,98488.25
2018-05-06T03:38:34.890Z,98490.84
2018-05-06T03:41:01.938Z,98490.86
2018-05-06T03:43:29.077Z,98493.73
2018-05-06T03:45:56.145Z,98491.31
2018-05-06T03:48:23.202Z,98496.34
2018-05-06T03:50:50.290Z,98497.82
2018-05-06T03:53:17.431Z,98494.73
2018-05-06T03:55:44.552Z,98492.09
2018-05-06T03:58:17.504Z,98494.22
2018-05-06T04:00:47.521Z,98504.18
2018-05-06T04:03:14.584Z,98497.19
2018-05-06T04:05:41.743Z,98497.49
2018-05-06T04:08:08.766Z,98503.14
2018-05-06T04:10:35.884Z,98507.70
2018-05-06T04:13:03.072Z,98504.15
2018-05-06T04:15:30.264Z,98503.00
2018-05-06T04:17:57.619Z,98507.80
2018-05-06T04:20:24.666Z,98510.83
2018-05-06T04:22:51.816Z,98505.95
2018-05-06T04:25:18.949Z,98511.02
2018-05-06T04:27:46.015Z,98513.16
2018-05-06T04:30:13.114Z,98511.62
2018-05-06T04:32:40.169Z,98511.69
2018-05-06T04:35:07.236Z,98519.95
2018-05-06T04:37:34.308Z,98515.83
2018-05-06T04:40:01.502Z,98526.67
2018-05-06T04:42:28.585Z,98520.89
2018-05-06T04:44:55.652Z,98519.27
2018-05-06T04:47:22.735Z,98520.95
2018-05-06T04:49:49.976Z,98524.73
2018-05-06T04:52:17.041Z,98529.19
2018-05-06T04:54:44.146Z,98529.96
2018-05-06T04:57:11.346Z,98533.55
2018-05-06T04:59:39.105Z,98534.79
2018-05-06T05:02:06.240Z,98531.17
2018-05-06T05:04:33.746Z,98532.16
2018-05-06T05:07:00.896Z,98535.22
2018-05-06T05:09:28.116Z,98534.07
2018-05-06T05:11:55.360Z,98533.05
2018-05-06T05:14:22.480Z,98536.82
2018-05-06T05:16:49.597Z,98542.00
2018-05-06T05:19:16.763Z,98542.44
2018-05-06T05:21:43.989Z,98537.55
2018-05-06T05:24:11.275Z,98538.83
2018-05-06T05:26:38.377Z,98539.99
2018-05-06T05:29:05.615Z,98546.82
2018-05-06T05:31:32.680Z,98551.72
2018-05-06T05:34:00.024Z,98546.67
2018-05-06T05:36:27.177Z,98547.64
2018-05-06T05:38:54.267Z,98541.94
2018-05-06T05:41:21.367Z,98541.38
2018-05-06T05:43:48.906Z,98542.45
2018-05-06T05:46:16.161Z,98540.00
2018-05-06T05:48:43.226Z,98540.24
2018-05-06T05:51:10.429Z,98539.39
2018-05-06T05:53:37.982Z,98541.64
2018-05-06T05:56:05.542Z,98537.63
2018-05-06T05:58:33.141Z,98534.10
2018-05-06T06:01:31.541Z,98540.76
2018-05-06T06:03:59.259Z,98547.30
2018-05-06T06:06:26.943Z,98550.12
2018-05-06T06:08:54.533Z,98541.59
2018-05-06T06:11:22.221Z,98546.05
2018-05-06T06:13:49.736Z,98546.42
2018-05-06T06:16:17.388Z,98544.98
2018-05-06T06:18:45.361Z,98548.89
2018-05-06T06:21:12.967Z,98547.34
2018-05-06T06:23:40.476Z,98551.48
2018-05-06T06:26:08.016Z,98542.49
2018-05-06T06:28:35.578Z,98550.36
2018-05-06T06:31:03.215Z,98541.73
2018-05-06T06:33:31.303Z,98542.89
2018-05-06T06:35:58.953Z,98543.38
2018-05-06T06:38:26.521Z,98542.31
2018-05-06T06:40:54.081Z,98543.59
2018-05-06T06:43:21.617Z,98547.20
2018-05-06T06:45:49.171Z,98541.89
2018-05-06T06:48:16.694Z,98547.75
2018-05-06T06:50:44.263Z,98540.15
2018-05-06T06:53:11.817Z,98537.60
2018-05-06T06:55:39.872Z,98541.59
2018-05-06T06:58:07.359Z,98543.16
2018-05-06T07:00:34.897Z,98545.45
2018-05-06T07:03:03.006Z,98544.31
2018-05-06T07:05:30.553Z,98535.56
2018-05-06T07:07:58.145Z,98533.27
2018-05-06T07:10:25.791Z,98537.44
2018-05-06T07:12:53.330Z,98531.79
2018-05-06T07:15:21.076Z,98531.21
2018-05-06T07:17:48.610Z,98534.01
2018-05-06T07:20:16.302Z,98537.30
2018-05-06T07:22:43.847Z,98534.95
2018-05-06T07:25:12.186Z,98535.00
2018-05-06T07:27:39.828Z,98534.12
2018-05-06T07:30:07.537Z,98537.16
2018-05-06T07:32:35.082Z,98535.33
2018-05-06T07:35:04.206Z,98532.14
2018-05-06T07:37:31.892Z,98537.06
2018-05-06T07:39:59.666Z,98541.53
2018-05-06T07:42:27.193Z,98538.78
2018-05-06T07:44:54.927Z,98532.77
2018-05-06T07:47:22.476Z,98533.42
2018-05-06T07:49:50.337Z,98527.31
2018-05-06T07:52:17.878Z,98527.14
2018-05-06T07:54:45.427Z,98534.81
2018-05-06T07:57:13.147Z,98538.89
2018-05-06T07:59:40.663Z,98532.44
2018-05-06T08:02:08.243Z,98528.93
2018-05-06T08:04:36.431Z,98526.77
2018-05-06T08:07:03.982Z,98523.63
2018-05-06T08:09:31.607Z,98521.31
2018-05-06T08:11:59.511Z,98522.69
2018-05-06T08:14:27.065Z,98525.96
2018-05-06T08:16:54.593Z,98521.66
2018-05-06T08:19:22.407Z,98526.27
2018-05-06T08:21:50.022Z,98521.73
2018-05-06T08:24:17.517Z,98510.19
2018-05-06T08:26:45.062Z,98503.09
2018-05-06T08:29:12.642Z,98516.57
2018-05-06T08:31:40.162Z,98516.02
2018-05-06T08:34:07.702Z,98511.42
2018-05-06T08:36:35.463Z,98510.41
2018-05-06T08:39:03.078Z,98514.18
2018-05-06T08:41:30.727Z,98515.63
2018-05-06T08:43:58.298Z,98515.44
2018-05-06T08:46:25.868Z,98508.58
2018-05-06T08:48:54.060Z,98513.16
2018-05-06T08:51:21.711Z,98512.86
2018-05-06T08:53:49.192Z,98514.45
2018-05-06T08:56:16.768Z,98509.71
2018-05-06T08:58:44.296Z,98514.36
2018-05-06T09:01:12.296Z,98507.19
2018-05-06T09:03:39.843Z,98512.48
2018-05-06T09:06:07.784Z,98509.16
2018-05-06T09:08:35.342Z,98498.98
2018-05-06T09:11:03.185Z,98502.83
2018-05-06T09:13:30.729Z,98494.49
2018-05-06T09:15:58.314Z,98490.04
2018-05-06T09:18:26.019Z,98488.62
2018-05-06T09:20:53.703Z,98486.77
2018-05-06T09:23:21.415Z,98496.13
2018-05-06T09:25:49.148Z,98489.95
2018-05-06T09:28:17.149Z,98493.23
2018-05-06T09:30:44.761Z,98484.65
2018-05-06T09:33:12.364Z,98501.74
2018-05-06T09:35:39.889Z,98491.42
2018-05-06T09:38:07.894Z,98486.58
2018-05-06T09:40:35.467Z,98481.57
2018-05-06T09:43:03.193Z,98482.39
2018-05-06T09:45:31.003Z,98481.23
2018-05-06T09:47:58.519Z,98483.16
2018-05-06T09:50:26.055Z,98473.94
2018-05-06T09:52:53.609Z,98478.83
2018-05-06T09:55:21.129Z,98478.97
2018-05-06T09:57:48.730Z,98487.61
2018-05-06T10:00:16.440Z,98476.77
2018-05-06T10:02:44.001Z,98481.84
2018-05-06T10:05:11.816Z,98478.76
2018-05-06T10:07:39.355Z,98479.67
2018-05-06T10:10:07.119Z,98477.09
2018-05-06T10:12:34.722Z,98474.73
2018-05-06T10:15:02.274Z,98470.87
2018-05-06T10:17:29.887Z,98466.98
2018-05-06T10:19:57.477Z,98464.19
2018-05-06T10:22:25.422Z,98469.88
2018-05-06T10:24:52.958Z,98457.91
2018-05-06T10:27:20.627Z,98460.89
2018-05-06T10:29:48.176Z,98456.02
2018-05-06T10:32:15.775Z,98454.09
2018-05-06T10:34:43.378Z,98458.40
2018-05-06T10:37:10.932Z,98448.45
2018-05-06T10:39:38.704Z,98445.63
2018-05-06T10:42:06.280Z,98437.50
2018-05-06T10:44:34.310Z,98434.22
2018-05-06T10:47:01.989Z,98433.22
2018-05-06T10:49:29.695Z,98427.18
2018-05-06T10:51:57.320Z,98425.73
2018-05-06T10:54:24.949Z,98426.71
2018-05-06T10:56:52.525Z,98417.68
2018-05-06T10:59:20.232Z,98413.69
2018-05-06T11:01:48.219Z,98417.14
2018-05-06T11:04:15.889Z,98413.05
2018-05-06T11:06:43.462Z,98419.14
2018-05-06T11:09:11.964Z,98421.09
2018-05-06T11:11:39.626Z,98404.99
2018-05-06T11:14:07.319Z,98400.02
2018-05-06T11:16:34.940Z,98398.31
2018-05-06T11:19:02.559Z,98400.53
2018-05-06T11:21:30.188Z,98393.37
2018-05-06T11:23:57.885Z,98395.94
2018-05-06T11:26:25.786Z,98392.33
2018-05-06T11:28:53.470Z,98389.10
2018-05-06T11:31:21.280Z,98386.76
2018-05-06T11:33:48.885Z,98390.03
2018-05-06T11:36:16.389Z,98394.00
2018-05-06T11:38:44.113Z,98389.81
2018-05-06T11:41:12.045Z,98380.66
2018-05-06T11:43:40.038Z,98382.82
2018-05-06T11:46:07.743Z,98368.59
2018-05-06T11:48:35.482Z,98374.30
2018-05-06T11:51:03.245Z,98369.23
2018-05-06T11:53:32.015Z,98380.19
2018-05-06T11:55:59.542Z,98371.77
2018-05-06T11:58:28.044Z,98366.61
2018-05-06T12:00:55.939Z,98359.84
2018-05-06T12:03:23.707Z,98365.30
2018-05-06T12:05:51.654Z,98362.44
2018-05-06T12:08:19.263Z,98362.48
2018-05-06T12:10:46.940Z,98353.91
2018-05-06T12:13:14.729Z,98349.16
2018-05-06T12:15:42.344Z,98341.84
2018-05-06T12:18:09.899Z,98342.73
2018-05-06T12:20:37.503Z,98341.55
2018-05-06T12:23:05.119Z,98335.94
2018-05-06T12:25:32.684Z,98337.88
2018-05-06T12:28:00.298Z,98334.36
2018-05-06T12:30:28.168Z,98332.55
2018-05-06T12:32:55.717Z,98324.95
2018-05-06T12:35:23.987Z,98320.70
2018-05-06T12:37:51.626Z,98316.18
2018-05-06T12:40:19.349Z,98317.56
2018-05-06T12:42:46.913Z,98322.84
2018-05-06T12:45:15.099Z,98316.78
2018-05-06T12:47:42.619Z,98302.52
2018-05-06T12:50:10.303Z,98312.25
2018-05-06T12:52:38.060Z,98305.78
2018-05-06T12:55:05.595Z,98311.95
2018-05-06T12:57:33.279Z,98304.77
2018-05-06T13:00:01.028Z,98301.52
2018-05-06T13:02:28.833Z,98300.97
2018-05-06T13:04:56.367Z,98304.65
2018-05-06T13:07:23.984Z,98289.77
2018-05-06T13:09:52.528Z,98293.36
2018-05-06T13:12:20.170Z,98290.77
2018-05-06T13:14:47.883Z,98287.88
2018-05-06T13:17:15.440Z,98275.46
2018-05-06T13:19:43.013Z,98283.73
2018-05-06T13:22:10.824Z,98293.12
2018-05-06T13:24:38.980Z,98278.69
2018-05-06T13:27:06.539Z,98278.78
2018-05-06T13:29:34.252Z,98277.20
2018-05-06T13:32:01.794Z,98277.00
2018-05-06T13:34:29.415Z,98276.61
2018-05-06T13:36:57.215Z,98275.02
2018-05-06T13:39:24.739Z,98276.11
2018-05-06T13:41:52.611Z,98271.86
2018-05-06T13:44:20.174Z,98271.64
2018-05-06T13:46:47.749Z,98268.95
2018-05-06T13:49:15.306Z,98267.67
2018-05-06T13:51:42.875Z,98265.07
2018-05-06T13:54:10.659Z,98262.24
2018-05-06T13:56:38.514Z,98264.83
2018-05-06T13:59:06.066Z,98263.77
2018-05-06T14:01:33.780Z,98264.05
2018-05-06T14:04:01.281Z,98263.00
2018-05-06T14:06:28.890Z,98261.91
2018-05-06T14:08:56.721Z,98249.59
2018-05-06T14:11:24.818Z,98255.03
2018-05-06T14:13:52.488Z,98246.95
2018-05-06T14:16:20.099Z,98245.98
2018-05-06T14:18:47.843Z,98252.05
2018-05-06T14:21:15.489Z,98246.37
2018-05-06T14:23:43.263Z,98240.34
2018-05-06T14:26:11.069Z,98236.85
2018-05-06T14:28:38.634Z,98233.80
2018-05-06T14:31:06.195Z,98229.56
2018-05-06T14:33:34.283Z,98235.97
2018-05-06T14:36:02.004Z,98226.72
2018-05-06T14:38:29.706Z,98232.60
2018-05-06T14:40:57.354Z,98236.75
2018-05-06T14:43:25.254Z,98240.10
2018-05-06T14:45:52.796Z,98233.71
2018-05-06T14:48:20.621Z,98234.75
2018-05-06T14:51:18.960Z,98231.13
2018-05-06T14:53:46.490Z,98226.29
2018-05-06T14:56:22.661Z,98221.55
2018-05-06T14:58:50.278Z,98227.33
2018-05-06T15:01:18.679Z,98222.95
2018-05-06T15:03:46.403Z,98222.02
2018-05-06T15:06:14.121Z,98217.86
2018-05-06T15:08:41.705Z,98222.05
2018-05-06T15:11:09.400Z,98220.86
2018-05-06T15:13:36.910Z,98215.14
2018-05-06T15:16:04.665Z,98214.93
2018-05-06T15:18:32.332Z,98215.93
2018-05-06T15:20:59.896Z,98216.92
2018-05-06T15:23:27.505Z,98208.80
2018-05-06T15:25:55.434Z,98214.93
2018-05-06T15:28:23.010Z,98216.32
2018-05-06T15:30:50.561Z,98206.42
2018-05-06T15:33:18.270Z,98211.98
2018-05-06T15:35:45.984Z,98206.02
2018-05-06T15:38:13.533Z,98209.80
2018-05-06T15:40:41.174Z,98205.00
2018-05-06T15:43:08.725Z,98201.81
2018-05-06T15:45:36.366Z,98195.44
2018-05-06T15:48:04.055Z,98194.86
2018-05-06T15:50:31.618Z,98194.27
2018-05-06T15:52:59.137Z,98193.32
2018-05-06T15:55:26.669Z,98188.51
2018-05-06T15:57:54.405Z,98190.07
2018-05-06T16:00:22.181Z,98190.45
2018-05-06T16:03:01.445Z,98181.94
2018-05-06T16:05:29.096Z,98187.72
2018-05-06T16:07:56.843Z,98187.48
2018-05-06T16:10:24.441Z,98184.11
2018-05-06T16:12:51.992Z,98185.75
2018-05-06T16:15:19.760Z,98180.88
2018-05-06T16:17:47.562Z,98184.25
2018-05-06T16:20:15.129Z,98181.88
2018-05-06T16:22:42.749Z,98182.68
2018-05-06T16:25:10.325Z,98183.46
2018-05-06T16:27:37.963Z,98183.88
2018-05-06T16:30:05.675Z,98185.59
2018-05-06T16:32:33.365Z,98182.82
2018-05-06T16:35:01.091Z,98185.38
2018-05-06T16:37:28.625Z,98179.83
2018-05-06T16:39:56.232Z,98189.13
2018-05-06T16:42:23.752Z,98180.39
2018-05-06T16:44:51.302Z,98180.37
2018-05-06T16:47:18.950Z,98183.32
2018-05-06T16:49:46.566Z,98178.77
2018-05-06T16:52:14.164Z,98174.56
2018-05-06T16:54:42.026Z,98180.06
2018-05-06T16:57:09.571Z,98183.98
2018-05-06T16:59:37.982Z,98180.82
2018-05-06T17:02:05.657Z,98184.49
2018-05-06T17:04:33.266Z,98185.47
2018-05-06T17:07:00.908Z,98186.80
2018-05-06T17:09:28.555Z,98186.58
2018-05-06T17:11:56.246Z,98182.02
2018-05-06T17:14:23.920Z,98192.00
2018-05-06T17:16:51.515Z,98187.02
2018-05-06T17:19:19.126Z,98188.97
2018-05-06T17:21:48.212Z,98192.83
2018-05-06T17:24:15.871Z,98193.62
2018-05-06T17:26:43.471Z,98192.97
2018-05-06T17:29:11.447Z,98190.73
2018-05-06T17:31:39.179Z,98190.48
2018-05-06T17:34:07.482Z,98195.55
2018-05-06T17:36:35.191Z,98202.41
2018-05-06T17:39:02.922Z,98192.84
2018-05-06T17:41:30.747Z,98197.26
2018-05-06T17:43:58.472Z,98202.34
2018-05-06T17:46:26.158Z,98202.94
2018-05-06T17:48:53.965Z,98202.55
2018-05-06T17:51:21.922Z,98202.50
2018-05-06T17:53:49.509Z,98203.80
2018-05-06T17:56:17.298Z,98203.08
2018-05-06T17:58:45.307Z,98207.72
2018-05-06T18:01:12.996Z,98208.63
2018-05-06T18:03:40.750Z,98202.98
2018-05-06T18:06:08.876Z,98209.31
2018-05-06T18:08:36.526Z,98204.24
2018-05-06T18:11:04.365Z,98204.54
2018-05-06T18:13:32.124Z,98206.59
2018-05-06T18:15:59.927Z,98201.94
2018-05-06T18:18:27.737Z,98202.34
2018-05-06T18:20:55.501Z,98203.16
2018-05-06T18:23:23.052Z,98211.94
2018-05-06T18:25:50.848Z,98204.39
2018-05-06T18:28:18.402Z,98210.13
2018-05-06T18:30:46.472Z,98206.81
2018-05-06T18:33:13.827Z,98210.03
2018-05-06T18:35:40.983Z,98212.22
2018-05-06T18:38:08.345Z,98220.02
2018-05-06T18:40:35.935Z,98222.25
2018-05-06T18:43:03.656Z,98221.50
2018-05-06T18:45:31.408Z,98225.15
2018-05-06T18:47:59.111Z,98226.56
2018-05-06T18:50:27.027Z,98227.32
2018-05-06T18:52:55.176Z,98234.23
2018-05-06T18:55:22.815Z,98235.03
2018-05-06T18:57:50.863Z,98236.25
2018-05-06T19:00:18.513Z,98237.92
2018-05-06T19:02:46.507Z,98249.13
2018-05-06T19:05:14.097Z,98248.84
2018-05-06T19:07:41.916Z,98254.47
2018-05-06T19:10:09.628Z,98249.73
2018-05-06T19:12:37.488Z,98254.45
2018-05-06T19:15:05.297Z,98248.28
2018-05-06T19:17:32.867Z,98248.11
2018-05-06T19:20:00.694Z,98252.16
2018-05-06T19:22:28.582Z,98249.36
2018-05-06T19:24:56.430Z,98247.44
2018-05-06T19:27:24.104Z,98251.25
2018-05-06T19:29:51.496Z,98253.22
2018-05-06T19:32:18.577Z,98251.86
2018-05-06T19:34:45.766Z,98257.34
2018-05-06T19:37:13.090Z,98261.59
2018-05-06T19:39:40.312Z,98267.04
2018-05-06T19:42:29.995Z,98269.83
2018-05-06T19:44:57.423Z,98266.00
2018-05-06T19:47:24.540Z,98268.84
2018-05-06T19:49:52.166Z,98272.60
2018-05-06T19:52:19.740Z,98272.25
2018-05-06T19:54:47.492Z,98272.95
2018-05-06T19:57:15.176Z,98271.30
2018-05-06T19:59:42.889Z,98275.89
2018-05-06T20:02:10.542Z,98272.22
2018-05-06T20:04:38.095Z,98276.64
2018-05-06T20:07:05.677Z,98275.42
2018-05-06T20:09:34.216Z,98277.04
2018-05-06T20:12:01.883Z,98278.87
2018-05-06T20:14:29.610Z,98276.38
2018-05-06T20:16:57.155Z,98281.42
2018-05-06T20:19:24.707Z,98281.47
2018-05-06T20:21:52.456Z,98284.53
2018-05-06T20:24:20.062Z,98282.60
2018-05-06T20:26:47.263Z,98285.56
2018-05-06T20:29:14.725Z,98288.95
2018-05-06T20:31:41.883Z,98292.32
2018-05-06T20:34:09.248Z,98286.09
2018-05-06T20:36:36.812Z,98290.44
2018-05-06T20:39:03.946Z,98287.69
2018-05-06T20:41:31.246Z,98288.89
2018-05-06T20:43:58.328Z,98286.80
2018-05-06T20:46:25.472Z,98288.19
2018-05-06T20:48:52.666Z,98290.80
2018-05-06T20:51:19.967Z,98292.13
2018-05-06T20:53:47.077Z,98291.56
2018-05-06T20:56:14.189Z,98292.42
2018-05-06T20:58:41.302Z,98292.00
2018-05-06T21:01:08.567Z,98291.59
2018-05-06T21:03:36.013Z,98295.67
2018-05-06T21:06:03.190Z,98295.07
2018-05-06T21:08:30.577Z,98298.40
2018-05-06T21:10:59.133Z,98295.83
2018-05-06T21:13:26.242Z,98291.80
2018-05-06T21:15:53.405Z,98288.70
2018-05-06T21:18:20.558Z,98284.56
2018-05-06T21:20:47.700Z,98284.99
2018-05-06T21:23:14.863Z,98282.20
2018-05-06T21:25:41.943Z,98284.16
2018-05-06T21:28:09.063Z,98294.78
2018-05-06T21:30:36.239Z,98286.56
2018-05-06T21:33:03.396Z,98284.83
2018-05-06T21:35:30.485Z,98285.63
2018-05-06T21:37:57.548Z,98279.35
2018-05-06T21:40:24.626Z,98287.63
2018-05-06T21:42:51.698Z,98287.34
2018-05-06T21:45:19.143Z,98288.38
2018-05-06T21:47:46.192Z,98285.02
2018-05-06T21:50:13.535Z,98289.84
2018-05-06T21:52:40.611Z,98290.79
2018-05-06T21:55:07.701Z,98292.09
2018-05-06T21:57:34.786Z,98292.33
2018-05-06T22:00:01.853Z,98295.36
2018-05-06T22:02:28.922Z,98296.29
2018-05-06T22:04:56.003Z,98297.53
2018-05-06T22:07:23.204Z,98302.86
2018-05-06T22:09:50.307Z,98300.22
2018-05-06T22:12:17.380Z,98294.89
2018-05-06T22:14:44.477Z,98300.45
2018-05-06T22:17:11.567Z,98301.53
2018-05-06T22:19:38.676Z,98298.11
2018-05-06T22:22:05.727Z,98303.73
2018-05-06T22:24:32.813Z,98302.81
2018-05-06T22:26:59.886Z,98304.75
2018-05-06T22:29:26.991Z,98305.87
2018-05-06T22:31:54.116Z,98302.30
2018-05-06T22:34:21.204Z,98297.99
2018-05-06T22:36:48.272Z,98299.75
2018-05-06T22:39:15.492Z,98300.13
2018-05-06T22:41:42.747Z,98300.81
2018-05-06T22:44:09.737Z,98297.47
2018-05-06T22:46:37.602Z,98297.88
2018-05-06T22:49:04.996Z,98297.54
2018-05-06T22:51:32.131Z,98301.52
2018-05-06T22:53:59.197Z,98296.55
2018-05-06T22:56:26.273Z,98294.93
2018-05-06T22:58:53.417Z,98296.36
2018-05-06T23:01:20.512Z,98293.95
2018-05-06T23:03:47.586Z,98292.19
2018-05-06T23:06:15.170Z,98286.80
2018-05-06T23:08:42.225Z,98291.59
2018-05-06T23:11:09.405Z,98292.67
2018-05-06T23:13:36.463Z,98284.55
2018-05-06T23:16:03.563Z,98285.45
2018-05-06T23:18:30.627Z,98289.51
2018-05-06T23:20:57.763Z,98285.37
2018-05-06T23:23:24.862Z,98282.16
2018-05-06T23:25:52.047Z,98277.14
2018-05-06T23:28:19.095Z,98276.38
2018-05-06T23:30:46.211Z,98275.14
2018-05-06T23:33:13.366Z,98274.20
2018-05-06T23:35:40.451Z,98274.33
2018-05-06T23:38:07.592Z,98274.98
2018-05-06T23:40:34.937Z,98267.73
2018-05-06T23:43:02.270Z,98269.20
2018-05-06T23:45:29.416Z,98271.37
2018-05-06T23:47:56.497Z,98269.00
2018-05-06T23:50:23.716Z,98265.31
2018-05-06T23:52:50.808Z,98261.80
2018-05-06T23:55:18.043Z,98266.70
2018-05-06T23:57:45.151Z,98264.13
